createdAt,value
2018-11-06T00:02:07.358Z,56.23
2018-11-06T00:04:42.599Z,55.77
2018-11-06T00:07:12.660Z,57.10
2018-11-06T00:09:43.764Z,56.27
2018-11-06T00:12:14.209Z,58.07
2018-11-06T00:14:47.016Z,56.97
2018-11-06T00:17:17.252Z,57.53
2018-11-06T00:19:48.030Z,57.30
2018-11-06T00:22:17.950Z,57.63
2018-11-06T00:24:48.166Z,56.17
2018-11-06T00:27:18.664Z,58.27
2018-11-06T00:29:49.862Z,56.90
2018-11-06T00:32:20.561Z,57.23
2018-11-06T00:34:50.614Z,57.73
2018-11-06T00:37:20.612Z,58.53
2018-11-06T00:39:51.084Z,59.20
2018-11-06T00:42:22.353Z,60.40
2018-11-06T00:44:53.065Z,60.50
2018-11-06T00:47:23.834Z,60.97
2018-11-06T00:49:53.897Z,60.90
2018-11-06T00:52:24.442Z,59.63
2018-11-06T00:54:55.191Z,59.70
2018-11-06T00:57:25.589Z,57.83
2018-11-06T00:59:57.853Z,59.93
2018-11-06T01:02:28.538Z,58.47
2018-11-06T01:05:00.025Z,58.13
2018-11-06T01:07:30.047Z,56.57
2018-11-06T01:10:01.445Z,55.77
2018-11-06T01:12:31.897Z,54.43
2018-11-06T01:15:02.251Z,55.43
2018-11-06T01:17:33.014Z,55.50
2018-11-06T01:20:05.075Z,55.30
2018-11-06T01:22:36.403Z,55.90
2018-11-06T01:25:08.091Z,56.17
2018-11-06T01:27:38.588Z,55.07
2018-11-06T01:30:15.800Z,54.73
2018-11-06T01:32:47.357Z,55.10
2018-11-06T01:35:18.531Z,54.97
2018-11-06T01:37:48.766Z,54.73
2018-11-06T01:40:21.778Z,53.77
2018-11-06T01:42:52.617Z,54.77
2018-11-06T01:45:23.848Z,54.40
2018-11-06T01:47:54.825Z,53.53
2018-11-06T01:50:25.705Z,52.67
2018-11-06T01:52:56.996Z,53.57
2018-11-06T01:55:27.087Z,55.17
2018-11-06T01:57:57.087Z,54.43
2018-11-06T02:00:29.034Z,55.70
2018-11-06T02:02:59.201Z,53.63
2018-11-06T02:05:29.499Z,55.20
2018-11-06T02:07:59.832Z,55.93
2018-11-06T02:10:30.977Z,56.77
2018-11-06T02:13:01.160Z,57.93
2018-11-06T02:15:31.725Z,57.20
2018-11-06T02:18:01.658Z,58.80
2018-11-06T02:20:32.740Z,57.13
2018-11-06T02:23:03.565Z,58.60
2018-11-06T02:25:34.328Z,58.33
2018-11-06T02:28:06.920Z,58.67
2018-11-06T02:30:37.396Z,57.17
2018-11-06T02:33:07.914Z,55.97
2018-11-06T02:35:38.444Z,54.97
2018-11-06T02:38:08.837Z,56.13
2018-11-06T02:40:39.700Z,56.77
2018-11-06T02:43:09.731Z,56.83
2018-11-06T02:45:40.253Z,56.20
2018-11-06T02:48:12.984Z,56.83
2018-11-06T02:50:44.036Z,55.90
2018-11-06T02:53:14.140Z,56.57
2018-11-06T02:55:45.404Z,55.80
2018-11-06T02:58:15.798Z,55.50
2018-11-06T03:00:46.078Z,54.73
2018-11-06T03:03:16.391Z,55.10
2018-11-06T03:05:46.515Z,54.80
2018-11-06T03:08:18.729Z,54.93
2018-11-06T03:10:50.689Z,54.43
2018-11-06T03:13:20.926Z,54.77
2018-11-06T03:15:52.353Z,54.40
2018-11-06T03:18:22.589Z,55.27
2018-11-06T03:20:52.710Z,54.13
2018-11-06T03:23:23.090Z,54.47
2018-11-06T03:25:54.016Z,55.67
2018-11-06T03:28:24.105Z,54.70
2018-11-06T03:30:54.874Z,54.20
2018-11-06T03:33:27.087Z,56.30
2018-11-06T03:35:57.641Z,55.47
2018-11-06T03:38:27.971Z,55.83
2018-11-06T03:40:58.609Z,55.77
2018-11-06T03:43:32.029Z,54.57
2018-11-06T03:46:04.493Z,53.77
2018-11-06T03:48:37.832Z,54.40
2018-11-06T03:51:08.810Z,53.70
2018-11-06T03:53:39.271Z,54.27
2018-11-06T03:56:10.043Z,54.77
2018-11-06T03:58:40.151Z,54.07
2018-11-06T04:01:10.877Z,54.73
2018-11-06T04:03:40.920Z,54.17
2018-11-06T04:06:11.147Z,55.60
2018-11-06T04:08:41.204Z,54.97
2018-11-06T04:11:11.304Z,56.10
2018-11-06T04:13:41.476Z,55.73
2018-11-06T04:16:11.930Z,55.20
2018-11-06T04:18:41.932Z,52.97
2018-11-06T04:21:12.446Z,53.43
2018-11-06T04:23:43.464Z,53.93
2018-11-06T04:26:14.184Z,55.73
2018-11-06T04:28:44.255Z,56.63
2018-11-06T04:31:14.981Z,55.13
2018-11-06T04:33:45.021Z,55.83
2018-11-06T04:36:15.048Z,54.70
2018-11-06T04:38:45.239Z,54.50
2018-11-06T04:41:16.337Z,53.37
2018-11-06T04:43:46.844Z,54.03
2018-11-06T04:46:17.142Z,52.67
2018-11-06T04:48:47.944Z,53.57
2018-11-06T04:51:18.778Z,54.47
2018-11-06T04:53:50.153Z,53.50
2018-11-06T04:56:21.101Z,53.57
2018-11-06T04:58:51.260Z,55.07
2018-11-06T05:01:22.792Z,53.77
2018-11-06T05:03:52.931Z,54.43
2018-11-06T05:06:23.366Z,53.23
2018-11-06T05:08:53.660Z,55.43
2018-11-06T05:11:24.027Z,55.10
2018-11-06T05:13:54.117Z,54.40
2018-11-06T05:16:24.428Z,55.27
2018-11-06T05:18:54.598Z,54.87
2018-11-06T05:21:24.546Z,54.70
2018-11-06T05:23:54.996Z,55.00
2018-11-06T05:26:25.321Z,55.67
2018-11-06T05:28:55.621Z,55.00
2018-11-06T05:31:25.767Z,54.30
2018-11-06T05:33:56.293Z,54.93
2018-11-06T05:36:26.395Z,55.67
2018-11-06T05:38:56.354Z,54.20
2018-11-06T05:41:26.553Z,54.93
2018-11-06T05:43:57.140Z,55.53
2018-11-06T05:46:27.275Z,55.03
2018-11-06T05:48:58.673Z,55.23
2018-11-06T05:51:29.999Z,53.70
2018-11-06T05:54:01.055Z,54.00
2018-11-06T05:56:31.295Z,54.57
2018-11-06T05:59:01.327Z,53.10
2018-11-06T06:01:32.134Z,54.10
2018-11-06T06:04:02.345Z,53.30
2018-11-06T06:06:32.447Z,55.03
2018-11-06T06:09:03.232Z,52.10
2018-11-06T06:11:33.402Z,54.00
2018-11-06T06:14:03.716Z,52.13
2018-11-06T06:16:33.858Z,51.90
2018-11-06T06:19:04.029Z,53.83
2018-11-06T06:21:34.868Z,53.20
2018-11-06T06:24:04.989Z,52.00
2018-11-06T06:26:35.598Z,53.53
2018-11-06T06:29:06.397Z,51.63
2018-11-06T06:31:36.554Z,52.93
2018-11-06T06:34:06.900Z,53.27
2018-11-06T06:36:37.081Z,53.83
2018-11-06T06:39:11.067Z,52.83
2018-11-06T06:41:41.133Z,51.63
2018-11-06T06:44:11.711Z,51.47
2018-11-06T06:46:42.301Z,51.80
2018-11-06T06:49:12.449Z,52.33
2018-11-06T06:51:43.592Z,52.40
2018-11-06T06:54:14.633Z,51.30
2018-11-06T06:56:44.666Z,52.33
2018-11-06T06:59:15.354Z,51.53
2018-11-06T07:01:45.314Z,52.60
2018-11-06T07:04:18.311Z,53.57
2018-11-06T07:06:49.404Z,54.17
2018-11-06T07:09:21.312Z,52.97
2018-11-06T07:11:51.745Z,53.50
2018-11-06T07:14:21.836Z,52.87
2018-11-06T07:16:51.946Z,51.77
2018-11-06T07:19:24.283Z,53.50
2018-11-06T07:21:54.468Z,53.30
2018-11-06T07:24:25.176Z,52.27
2018-11-06T07:26:56.483Z,53.37
2018-11-06T07:29:27.100Z,54.10
2018-11-06T07:31:57.313Z,53.47
2018-11-06T07:34:27.555Z,51.23
2018-11-06T07:36:58.741Z,50.47
2018-11-06T07:39:29.823Z,51.17
2018-11-06T07:42:00.115Z,52.10
2018-11-06T07:44:30.252Z,51.17
2018-11-06T07:47:03.169Z,52.27
2018-11-06T07:49:33.744Z,52.60
2018-11-06T07:52:06.533Z,53.27
2018-11-06T07:54:38.539Z,51.77
2018-11-06T07:57:08.519Z,53.33
2018-11-06T07:59:39.312Z,53.17
2018-11-06T08:02:09.859Z,52.77
2018-11-06T08:04:40.033Z,51.73
2018-11-06T08:07:10.909Z,51.00
2018-11-06T08:09:41.107Z,52.97
2018-11-06T08:12:13.432Z,52.77
2018-11-06T08:14:44.487Z,50.93
2018-11-06T08:17:14.430Z,51.00
2018-11-06T08:19:44.345Z,50.97
2018-11-06T08:22:14.344Z,53.20
2018-11-06T08:24:44.738Z,51.47
2018-11-06T08:27:14.875Z,51.83
2018-11-06T08:29:45.176Z,50.43
2018-11-06T08:32:16.746Z,50.10
2018-11-06T08:34:46.891Z,50.97
2018-11-06T08:37:16.907Z,52.47
2018-11-06T08:39:47.064Z,51.17
2018-11-06T08:42:17.411Z,51.20
2018-11-06T08:44:47.638Z,52.53
2018-11-06T08:47:17.806Z,52.07
2018-11-06T08:49:47.899Z,51.80
2018-11-06T08:52:17.986Z,51.67
2018-11-06T08:54:48.208Z,51.90
2018-11-06T08:57:18.276Z,52.10
2018-11-06T08:59:48.262Z,51.53
2018-11-06T09:02:18.485Z,52.10
2018-11-06T09:04:48.664Z,51.97
2018-11-06T09:07:18.828Z,51.30
2018-11-06T09:09:49.130Z,51.47
2018-11-06T09:12:20.075Z,51.27
2018-11-06T09:14:50.596Z,51.60
2018-11-06T09:17:20.817Z,51.47
2018-11-06T09:19:50.882Z,52.77
2018-11-06T09:22:20.838Z,51.83
2018-11-06T09:24:51.108Z,51.97
2018-11-06T09:27:21.280Z,51.53
2018-11-06T09:29:51.747Z,52.03
2018-11-06T09:32:21.714Z,52.97
2018-11-06T09:34:51.941Z,52.33
2018-11-06T09:37:22.294Z,51.13
2018-11-06T09:39:52.783Z,51.70
2018-11-06T09:42:23.075Z,51.37
2018-11-06T09:44:53.268Z,51.80
2018-11-06T09:47:24.748Z,50.77
2018-11-06T09:49:55.236Z,51.10
2018-11-06T09:52:25.767Z,51.07
2018-11-06T09:54:56.268Z,51.60
2018-11-06T09:57:26.399Z,52.10
2018-11-06T09:59:56.511Z,50.97
2018-11-06T10:02:26.570Z,52.40
2018-11-06T10:04:56.768Z,51.93
2018-11-06T10:07:27.239Z,52.13
2018-11-06T10:09:57.441Z,52.73
2018-11-06T10:12:27.790Z,51.57
2018-11-06T10:14:58.534Z,51.50
2018-11-06T10:17:28.715Z,51.93
2018-11-06T10:19:58.803Z,50.70
2018-11-06T10:22:29.068Z,50.77
2018-11-06T10:24:59.798Z,49.53
2018-11-06T10:27:31.511Z,49.47
2018-11-06T10:30:01.693Z,48.87
2018-11-06T10:32:31.649Z,48.37
2018-11-06T10:35:02.170Z,48.30
2018-11-06T10:37:33.961Z,48.70
2018-11-06T10:40:07.333Z,47.87
2018-11-06T10:42:38.229Z,47.50
2018-11-06T10:45:09.024Z,47.73
2018-11-06T10:47:40.636Z,47.83
2018-11-06T10:50:12.487Z,47.63
2018-11-06T10:52:44.025Z,48.27
2018-11-06T10:55:14.127Z,48.40
2018-11-06T10:57:47.535Z,47.63
2018-11-06T11:00:22.663Z,47.30
2018-11-06T11:02:58.139Z,48.07
2018-11-06T11:05:30.524Z,46.23
2018-11-06T11:08:01.523Z,46.73
2018-11-06T11:10:31.945Z,46.70
2018-11-06T11:13:02.197Z,46.73
2018-11-06T11:15:32.272Z,46.97
2018-11-06T11:18:02.991Z,45.87
2018-11-06T11:20:34.815Z,46.77
2018-11-06T11:23:05.432Z,49.67
2018-11-06T11:25:35.759Z,47.00
2018-11-06T11:28:06.117Z,46.17
2018-11-06T11:30:36.983Z,47.20
2018-11-06T11:33:07.858Z,46.23
2018-11-06T11:35:38.096Z,46.97
2018-11-06T11:38:08.251Z,46.00
2018-11-06T11:40:38.358Z,46.13
2018-11-06T11:43:08.515Z,45.67
2018-11-06T11:45:38.761Z,46.67
2018-11-06T11:48:08.856Z,46.43
2018-11-06T11:50:39.125Z,45.90
2018-11-06T11:53:09.560Z,45.80
2018-11-06T11:55:40.154Z,46.37
2018-11-06T11:58:10.384Z,47.43
2018-11-06T12:00:40.889Z,46.23
2018-11-06T12:03:11.724Z,47.30
2018-11-06T12:05:42.945Z,46.23
2018-11-06T12:08:13.462Z,46.07
2018-11-06T12:10:44.164Z,46.43
2018-11-06T12:13:14.451Z,45.73
2018-11-06T12:15:45.525Z,45.57
2018-11-06T12:18:16.199Z,45.47
2018-11-06T12:20:46.802Z,45.87
2018-11-06T12:23:16.894Z,45.20
2018-11-06T12:25:47.888Z,44.87
2018-11-06T12:28:17.554Z,44.77
2018-11-06T12:30:47.750Z,44.93
2018-11-06T12:33:17.793Z,44.90
2018-11-06T12:35:48.007Z,45.00
2018-11-06T12:38:18.211Z,45.60
2018-11-06T12:40:49.263Z,45.07
2018-11-06T12:43:19.293Z,45.63
2018-11-06T12:45:49.766Z,46.43
2018-11-06T12:48:20.182Z,45.47
2018-11-06T12:50:50.750Z,45.23
2018-11-06T12:53:20.998Z,45.40
2018-11-06T12:55:51.240Z,46.03
2018-11-06T12:58:21.177Z,45.73
2018-11-06T13:00:51.388Z,45.27
2018-11-06T13:03:21.375Z,45.73
2018-11-06T13:05:51.611Z,45.67
2018-11-06T13:08:21.713Z,45.67
2018-11-06T13:10:52.545Z,45.00
2018-11-06T13:13:23.148Z,44.73
2018-11-06T13:15:53.533Z,45.00
2018-11-06T13:18:23.489Z,45.33
2018-11-06T13:20:53.430Z,44.50
2018-11-06T13:23:23.437Z,44.67
2018-11-06T13:25:53.766Z,45.87
2018-11-06T13:28:24.644Z,45.50
2018-11-06T13:30:54.782Z,44.80
2018-11-06T13:33:24.921Z,44.80
2018-11-06T13:35:55.110Z,44.63
2018-11-06T13:38:25.588Z,44.57
2018-11-06T13:40:55.625Z,44.83
2018-11-06T13:43:25.811Z,44.83
2018-11-06T13:45:56.108Z,44.63
2018-11-06T13:48:26.304Z,44.37
2018-11-06T13:50:56.695Z,45.20
2018-11-06T13:53:26.781Z,44.73
2018-11-06T13:55:56.972Z,45.43
2018-11-06T13:58:27.100Z,44.13
2018-11-06T14:00:57.395Z,44.83
2018-11-06T14:03:27.821Z,44.90
2018-11-06T14:05:57.910Z,45.17
2018-11-06T14:08:28.402Z,43.90
2018-11-06T14:10:58.707Z,43.60
2018-11-06T14:13:28.784Z,44.13
2018-11-06T14:15:59.348Z,44.87
2018-11-06T14:18:29.587Z,44.40
2018-11-06T14:21:00.926Z,45.17
2018-11-06T14:23:31.260Z,45.60
2018-11-06T14:26:01.846Z,44.97
2018-11-06T14:28:32.007Z,44.63
2018-11-06T14:31:02.184Z,45.10
2018-11-06T14:33:32.784Z,44.80
2018-11-06T14:36:03.040Z,44.67
2018-11-06T14:38:33.068Z,44.67
2018-11-06T14:41:03.368Z,44.17
2018-11-06T14:43:33.673Z,43.23
2018-11-06T14:46:10.605Z,43.60
2018-11-06T14:48:40.959Z,43.53
2018-11-06T14:51:10.996Z,44.27
2018-11-06T14:53:41.337Z,44.30
2018-11-06T14:56:12.584Z,44.40
2018-11-06T14:58:42.976Z,43.13
2018-11-06T15:01:13.188Z,43.57
2018-11-06T15:03:44.801Z,43.70
2018-11-06T15:06:16.421Z,44.40
2018-11-06T15:08:47.817Z,43.27
2018-11-06T15:11:19.011Z,42.93
2018-11-06T15:13:50.239Z,43.63
2018-11-06T15:16:20.996Z,44.17
2018-11-06T15:18:52.044Z,43.77
2018-11-06T15:21:22.443Z,43.43
2018-11-06T15:23:53.475Z,44.17
2018-11-06T15:26:24.153Z,44.20
2018-11-06T15:28:54.147Z,43.60
2018-11-06T15:31:27.414Z,44.60
2018-11-06T15:33:58.348Z,42.80
2018-11-06T15:36:28.758Z,43.53
2018-11-06T15:38:59.070Z,44.27
2018-11-06T15:41:29.646Z,44.77
2018-11-06T15:44:00.043Z,45.00
2018-11-06T15:46:30.830Z,44.93
2018-11-06T15:49:02.759Z,47.23
2018-11-06T15:51:34.870Z,45.40
2018-11-06T15:54:07.534Z,45.30
2018-11-06T15:56:39.895Z,44.87
2018-11-06T15:59:12.604Z,44.80
2018-11-06T16:01:44.715Z,43.90
2018-11-06T16:04:15.079Z,43.57
2018-11-06T16:06:47.132Z,43.67
2018-11-06T16:09:20.893Z,43.17
2018-11-06T16:11:51.768Z,42.97
2018-11-06T16:14:23.178Z,42.53
2018-11-06T16:16:53.402Z,42.90
2018-11-06T16:19:23.568Z,43.30
2018-11-06T16:21:54.068Z,43.83
2018-11-06T16:24:24.331Z,43.70
2018-11-06T16:26:54.594Z,43.50
2018-11-06T16:29:24.656Z,44.03
2018-11-06T16:31:54.669Z,44.63
2018-11-06T16:34:26.227Z,43.77
2018-11-06T16:36:56.817Z,44.03
2018-11-06T16:39:26.912Z,44.13
2018-11-06T16:41:57.613Z,43.20
2018-11-06T16:44:27.902Z,43.50
2018-11-06T16:46:58.278Z,43.33
2018-11-06T16:49:28.962Z,43.43
2018-11-06T16:51:59.221Z,43.87
2018-11-06T16:54:32.289Z,43.03
2018-11-06T16:57:03.084Z,43.07
2018-11-06T16:59:33.447Z,43.03
2018-11-06T17:02:03.432Z,42.27
2018-11-06T17:04:33.826Z,42.70
2018-11-06T17:07:04.235Z,43.20
2018-11-06T17:09:34.967Z,43.23
2018-11-06T17:12:05.281Z,42.50
2018-11-06T17:14:35.405Z,42.27
2018-11-06T17:17:05.900Z,42.23
2018-11-06T17:19:36.005Z,42.77
2018-11-06T17:22:06.216Z,42.37
2018-11-06T17:24:36.388Z,41.70
2018-11-06T17:27:06.924Z,41.73
2018-11-06T17:29:37.111Z,42.17
2018-11-06T17:32:07.521Z,42.10
2018-11-06T17:34:38.001Z,42.13
2018-11-06T17:37:08.298Z,42.87
2018-11-06T17:39:38.532Z,42.50
2018-11-06T17:42:08.547Z,42.97
2018-11-06T17:44:38.677Z,42.67
2018-11-06T17:47:09.028Z,43.23
2018-11-06T17:49:46.033Z,43.23
2018-11-06T17:52:16.337Z,43.20
2018-11-06T17:54:46.444Z,42.67
2018-11-06T17:57:18.784Z,43.30
2018-11-06T17:59:48.912Z,44.37
2018-11-06T18:02:18.899Z,44.20
2018-11-06T18:04:49.508Z,43.50
2018-11-06T18:07:20.227Z,43.20
2018-11-06T18:09:50.737Z,43.40
2018-11-06T18:12:21.149Z,43.03
2018-11-06T18:14:51.175Z,44.43
2018-11-06T18:17:21.438Z,43.80
2018-11-06T18:19:51.778Z,43.83
2018-11-06T18:22:21.805Z,43.73
2018-11-06T18:24:52.485Z,43.80
2018-11-06T18:27:22.868Z,43.73
2018-11-06T18:29:52.959Z,44.20
2018-11-06T18:32:23.371Z,42.83
2018-11-06T18:34:53.690Z,43.10
2018-11-06T18:37:24.058Z,43.37
2018-11-06T18:39:54.385Z,43.03
2018-11-06T18:42:24.525Z,43.63
2018-11-06T18:44:54.592Z,43.67
2018-11-06T18:47:24.633Z,43.50
2018-11-06T18:49:54.678Z,43.63
2018-11-06T18:52:26.305Z,43.07
2018-11-06T18:54:56.384Z,43.17
2018-11-06T18:57:26.443Z,42.83
2018-11-06T18:59:56.938Z,43.20
2018-11-06T19:02:27.070Z,42.63
2018-11-06T19:04:57.194Z,42.30
2018-11-06T19:07:27.536Z,42.60
2018-11-06T19:09:57.654Z,43.07
2018-11-06T19:12:28.745Z,42.83
2018-11-06T19:14:59.968Z,42.03
2018-11-06T19:17:31.798Z,42.27
2018-11-06T19:20:02.316Z,42.87
2018-11-06T19:22:32.590Z,42.53
2018-11-06T19:25:02.803Z,42.20
2018-11-06T19:27:32.943Z,42.40
2018-11-06T19:30:03.327Z,41.60
2018-11-06T19:32:33.489Z,42.27
2018-11-06T19:35:03.899Z,42.47
2018-11-06T19:37:34.140Z,42.03
2018-11-06T19:40:04.834Z,43.10
2018-11-06T19:42:36.136Z,42.50
2018-11-06T19:45:07.297Z,42.10
2018-11-06T19:47:40.888Z,42.80
2018-11-06T19:50:16.085Z,43.20
2018-11-06T19:52:46.201Z,42.80
2018-11-06T19:55:17.922Z,43.00
2018-11-06T19:57:48.232Z,43.47
2018-11-06T20:00:23.679Z,43.60
2018-11-06T20:02:54.939Z,44.17
2018-11-06T20:05:25.161Z,43.33
2018-11-06T20:07:55.175Z,42.90
2018-11-06T20:10:26.040Z,43.53
2018-11-06T20:13:02.957Z,42.80
2018-11-06T20:15:35.405Z,42.47
2018-11-06T20:18:08.496Z,41.87
2018-11-06T20:20:39.960Z,43.17
2018-11-06T20:23:10.337Z,43.27
2018-11-06T20:25:40.639Z,43.30
2018-11-06T20:28:10.927Z,43.03
2018-11-06T20:30:41.024Z,45.20
2018-11-06T20:33:11.567Z,43.57
2018-11-06T20:35:41.888Z,43.20
2018-11-06T20:38:11.948Z,43.50
2018-11-06T20:40:42.526Z,43.20
2018-11-06T20:43:12.788Z,43.23
2018-11-06T20:45:44.037Z,43.10
2018-11-06T20:48:14.660Z,42.80
2018-11-06T20:50:44.941Z,43.20
2018-11-06T20:53:14.958Z,43.53
2018-11-06T20:55:52.761Z,43.20
2018-11-06T20:58:22.744Z,42.20
2018-11-06T21:00:53.789Z,42.83
2018-11-06T21:03:24.149Z,42.43
2018-11-06T21:05:55.310Z,42.37
2018-11-06T21:08:25.828Z,44.10
2018-11-06T21:10:56.383Z,42.57
2018-11-06T21:13:27.040Z,42.03
2018-11-06T21:15:56.993Z,42.67
2018-11-06T21:18:27.311Z,43.13
2018-11-06T21:20:58.589Z,43.27
2018-11-06T21:23:28.574Z,43.80
2018-11-06T21:25:59.075Z,43.23
2018-11-06T21:28:29.017Z,42.80
2018-11-06T21:30:59.010Z,43.70
2018-11-06T21:33:29.547Z,43.00
2018-11-06T21:35:59.690Z,44.17
2018-11-06T21:38:30.105Z,42.60
2018-11-06T21:41:00.894Z,42.10
2018-11-06T21:43:30.928Z,43.50
2018-11-06T21:46:01.268Z,41.80
2018-11-06T21:48:31.868Z,43.57
2018-11-06T21:51:01.956Z,43.13
2018-11-06T21:53:32.275Z,43.03
2018-11-06T21:56:03.257Z,43.63
2018-11-06T21:58:33.347Z,42.70
2018-11-06T22:01:03.431Z,43.63
2018-11-06T22:03:33.673Z,43.70
2018-11-06T22:06:03.636Z,44.00
2018-11-06T22:08:33.862Z,42.83
2018-11-06T22:11:04.180Z,43.23
2018-11-06T22:13:34.278Z,43.50
2018-11-06T22:16:05.471Z,43.67
2018-11-06T22:18:35.993Z,43.67
2018-11-06T22:21:06.315Z,43.13
2018-11-06T22:23:36.327Z,44.07
2018-11-06T22:26:06.572Z,43.33
2018-11-06T22:28:39.422Z,43.13
2018-11-06T22:31:09.611Z,43.00
2018-11-06T22:33:39.767Z,44.07
2018-11-06T22:36:10.288Z,43.07
2018-11-06T22:38:40.726Z,43.47
2018-11-06T22:41:10.777Z,43.07
2018-11-06T22:43:40.822Z,42.70
2018-11-06T22:46:11.124Z,43.80
2018-11-06T22:48:41.778Z,43.90
2018-11-06T22:58:18.968Z,43.03
2018-11-06T23:00:54.167Z,43.00
2018-11-06T23:03:24.209Z,43.00
2018-11-06T23:05:54.290Z,42.67
2018-11-06T23:08:24.543Z,42.47
2018-11-06T23:10:54.835Z,43.43
2018-11-06T23:13:27.160Z,42.97
2018-11-06T23:15:58.192Z,43.43
2018-11-06T23:18:28.386Z,43.43
2018-11-06T23:21:00.862Z,42.77
2018-11-06T23:23:30.931Z,44.83
2018-11-06T23:26:01.335Z,42.80
2018-11-06T23:28:31.669Z,42.83
2018-11-06T23:31:01.734Z,43.70
2018-11-06T23:33:32.401Z,43.67
2018-11-06T23:36:02.726Z,42.80
2018-11-06T23:38:34.734Z,42.30
2018-11-06T23:41:05.874Z,42.83
2018-11-06T23:43:36.161Z,42.30
2018-11-06T23:46:06.955Z,42.90
2018-11-06T23:48:37.464Z,42.50
2018-11-06T23:51:07.637Z,42.30
2018-11-06T23:53:38.231Z,42.57
2018-11-06T23:56:08.279Z,42.20
2018-11-06T23:58:38.374Z,43.40
